createdAt,value
2017-09-10T00:00:30.374Z,10.10
2017-09-10T00:02:57.100Z,10.80
2017-09-10T00:05:23.710Z,10.75
2017-09-10T00:07:50.338Z,10.10
2017-09-10T00:10:16.951Z,11.70
2017-09-10T00:12:43.597Z,10.85
2017-09-10T00:15:10.209Z,12.50
2017-09-10T00:17:36.821Z,10.23
2017-09-10T00:20:03.442Z,9.88
2017-09-10T00:22:30.055Z,9.65
2017-09-10T00:24:56.715Z,11.70
2017-09-10T00:27:23.346Z,10.82
2017-09-10T00:29:49.958Z,10.27
2017-09-10T00:32:16.586Z,12.40
2017-09-10T00:34:43.203Z,11.93
2017-09-10T00:37:09.839Z,10.77
2017-09-10T00:39:36.441Z,11.98
2017-09-10T00:42:03.060Z,10.88
2017-09-10T00:44:29.686Z,11.32
2017-09-10T00:46:56.358Z,11.48
2017-09-10T00:49:22.993Z,11.30
2017-09-10T00:51:49.601Z,12.35
2017-09-10T00:54:16.269Z,12.13
2017-09-10T00:56:42.898Z,11.23
2017-09-10T00:59:09.549Z,11.45
2017-09-10T01:01:36.183Z,11.60
2017-09-10T01:04:02.795Z,13.45
2017-09-10T01:06:29.408Z,13.10
2017-09-10T01:08:56.107Z,11.18
2017-09-10T01:11:22.718Z,11.25
2017-09-10T01:13:49.354Z,12.18
2017-09-10T01:16:15.963Z,12.07
2017-09-10T01:18:42.577Z,12.00
2017-09-10T01:21:09.201Z,12.73
2017-09-10T01:23:35.834Z,12.43
2017-09-10T01:26:02.478Z,10.80
2017-09-10T01:28:29.102Z,13.45
2017-09-10T01:30:55.762Z,11.98
2017-09-10T01:33:22.439Z,11.50
2017-09-10T01:35:49.050Z,11.05
2017-09-10T01:38:15.717Z,11.75
2017-09-10T01:40:42.337Z,11.12
2017-09-10T01:43:08.949Z,11.52
2017-09-10T01:45:35.552Z,11.60
2017-09-10T01:48:02.273Z,11.60
2017-09-10T01:50:28.889Z,11.68
2017-09-10T01:52:55.524Z,10.60
2017-09-10T01:55:22.134Z,12.60
2017-09-10T01:57:48.742Z,11.00
2017-09-10T02:00:15.366Z,10.75
2017-09-10T02:02:41.978Z,11.23
2017-09-10T02:05:08.702Z,10.65
2017-09-10T02:07:35.333Z,12.02
2017-09-10T02:10:02.026Z,10.85
2017-09-10T02:12:28.649Z,10.55
2017-09-10T02:14:55.257Z,11.43
2017-09-10T02:17:21.890Z,11.43
2017-09-10T02:19:48.542Z,13.30
2017-09-10T02:22:15.146Z,11.38
2017-09-10T02:24:41.774Z,11.43
2017-09-10T02:27:08.395Z,12.57
2017-09-10T02:29:35.018Z,10.52
2017-09-10T02:32:01.625Z,11.98
2017-09-10T02:34:28.237Z,11.27
2017-09-10T02:36:54.907Z,11.27
2017-09-10T02:39:21.551Z,12.88
2017-09-10T02:41:48.171Z,12.48
2017-09-10T02:44:14.814Z,12.43
2017-09-10T02:46:41.422Z,12.43
2017-09-10T02:49:08.033Z,12.00
2017-09-10T02:51:34.670Z,11.52
2017-09-10T02:54:01.283Z,12.65
2017-09-10T02:56:27.917Z,13.00
2017-09-10T02:58:54.546Z,12.40
2017-09-10T03:01:21.163Z,13.10
2017-09-10T03:03:47.783Z,12.70
2017-09-10T03:06:14.653Z,12.25
2017-09-10T03:08:41.511Z,13.30
2017-09-10T03:11:08.158Z,12.40
2017-09-10T03:13:34.791Z,12.05
2017-09-10T03:16:01.405Z,12.05
2017-09-10T03:18:28.016Z,12.13
2017-09-10T03:20:54.647Z,11.85
2017-09-10T03:23:21.253Z,12.35
2017-09-10T03:25:47.938Z,12.88
2017-09-10T03:28:14.563Z,12.18
2017-09-10T03:30:41.278Z,13.48
2017-09-10T03:33:07.910Z,14.20
2017-09-10T03:35:34.654Z,14.00
2017-09-10T03:38:01.298Z,14.25
2017-09-10T03:40:27.976Z,13.95
2017-09-10T03:42:54.603Z,13.70
2017-09-10T03:45:21.214Z,12.98
2017-09-10T03:47:47.826Z,13.32
2017-09-10T03:50:14.454Z,12.50
2017-09-10T03:52:41.067Z,14.43
2017-09-10T03:55:07.678Z,14.32
2017-09-10T03:57:34.310Z,15.15
2017-09-10T04:00:00.922Z,15.27
2017-09-10T04:02:27.582Z,13.70
2017-09-10T04:04:54.209Z,14.43
2017-09-10T04:07:20.866Z,13.85
2017-09-10T04:09:47.473Z,15.07
2017-09-10T04:12:14.142Z,15.20
2017-09-10T04:14:40.753Z,14.50
2017-09-10T04:17:07.370Z,15.25
2017-09-10T04:19:34.057Z,13.70
2017-09-10T04:22:00.693Z,14.55
2017-09-10T04:24:27.301Z,14.75
2017-09-10T04:26:53.934Z,16.05
2017-09-10T04:29:20.615Z,14.02
2017-09-10T04:31:47.231Z,14.73
2017-09-10T04:34:13.893Z,14.80
2017-09-10T04:36:40.526Z,13.45
2017-09-10T04:39:07.137Z,15.55
2017-09-10T04:41:33.765Z,14.98
2017-09-10T04:44:00.445Z,13.68
2017-09-10T04:46:27.059Z,15.05
2017-09-10T04:48:53.686Z,14.23
2017-09-10T04:51:20.297Z,14.00
2017-09-10T04:53:46.902Z,13.52
2017-09-10T04:56:13.529Z,16.53
2017-09-10T04:58:40.173Z,14.13
2017-09-10T05:01:06.782Z,15.00
2017-09-10T05:03:33.458Z,14.40
2017-09-10T05:06:00.076Z,15.45
2017-09-10T05:08:26.694Z,15.18
2017-09-10T05:10:53.373Z,14.82
2017-09-10T05:13:20.056Z,15.00
2017-09-10T05:15:46.666Z,13.85
2017-09-10T05:18:13.297Z,23.52
2017-09-10T05:20:39.914Z,14.40
2017-09-10T05:23:06.522Z,17.60
2017-09-10T05:25:33.210Z,12.43
2017-09-10T05:27:59.822Z,12.48
2017-09-10T05:30:26.486Z,12.63
2017-09-10T05:32:53.226Z,14.95
2017-09-10T05:35:19.842Z,13.05
2017-09-10T05:37:46.509Z,15.10
2017-09-10T05:40:13.245Z,14.85
2017-09-10T05:42:39.854Z,15.23
2017-09-10T05:45:06.465Z,14.87
2017-09-10T05:47:33.098Z,12.85
2017-09-10T05:49:59.705Z,13.15
2017-09-10T05:52:26.339Z,15.65
2017-09-10T05:54:52.970Z,12.55
2017-09-10T05:57:19.617Z,12.07
2017-09-10T05:59:46.223Z,12.85
2017-09-10T06:02:12.898Z,15.52
2017-09-10T06:04:39.550Z,12.10
2017-09-10T06:07:06.178Z,13.27
2017-09-10T06:09:32.810Z,13.27
2017-09-10T06:11:59.416Z,11.98
2017-09-10T06:14:26.033Z,11.02
2017-09-10T06:16:52.661Z,12.70
2017-09-10T06:19:19.274Z,10.98
2017-09-10T06:21:45.886Z,9.48
2017-09-10T06:24:12.545Z,10.65
2017-09-10T06:26:39.159Z,10.57
2017-09-10T06:29:05.767Z,9.85
2017-09-10T06:31:32.467Z,9.50
2017-09-10T06:33:59.097Z,7.65
2017-09-10T06:36:25.785Z,9.07
2017-09-10T06:38:52.415Z,8.98
2017-09-10T06:41:19.013Z,7.87
2017-09-10T06:43:45.618Z,7.30
2017-09-10T06:46:12.239Z,8.15
2017-09-10T06:48:38.933Z,8.23
2017-09-10T06:51:05.542Z,8.27
2017-09-10T06:53:32.169Z,8.25
2017-09-10T06:55:58.777Z,7.93
2017-09-10T06:58:25.490Z,8.80
2017-09-10T07:00:52.119Z,7.05
2017-09-10T07:03:18.726Z,7.78
2017-09-10T07:05:45.330Z,7.95
2017-09-10T07:08:12.151Z,7.40
2017-09-10T07:10:38.749Z,7.78
2017-09-10T07:13:05.426Z,7.60
2017-09-10T07:15:32.049Z,7.00
2017-09-10T07:17:58.649Z,7.10
2017-09-10T07:20:25.288Z,7.28
2017-09-10T07:22:51.983Z,6.43
2017-09-10T07:25:18.585Z,6.80
2017-09-10T07:27:45.262Z,6.37
2017-09-10T07:30:11.897Z,6.55
2017-09-10T07:32:38.494Z,6.55
2017-09-10T07:35:05.101Z,6.47
2017-09-10T07:37:31.726Z,6.22
2017-09-10T07:39:58.326Z,5.45
2017-09-10T07:42:24.989Z,5.72
2017-09-10T07:44:51.630Z,6.35
2017-09-10T07:47:18.237Z,5.55
2017-09-10T07:49:44.909Z,4.87
2017-09-10T07:52:11.533Z,4.97
2017-09-10T07:54:38.185Z,5.37
2017-09-10T07:57:04.850Z,4.25
2017-09-10T07:59:31.470Z,4.85
2017-09-10T08:01:58.069Z,4.10
2017-09-10T08:04:24.664Z,4.05
2017-09-10T08:06:51.289Z,4.65
2017-09-10T08:09:17.922Z,4.40
2017-09-10T08:11:44.557Z,4.85
2017-09-10T08:14:11.193Z,3.70
2017-09-10T08:16:37.883Z,4.35
2017-09-10T08:19:04.475Z,5.03
2017-09-10T08:21:31.218Z,4.05
2017-09-10T08:23:57.824Z,3.80
2017-09-10T08:26:24.426Z,3.70
2017-09-10T08:28:51.051Z,3.55
2017-09-10T08:31:17.654Z,3.80
2017-09-10T08:33:44.356Z,3.42
2017-09-10T08:36:11.054Z,3.03
2017-09-10T08:38:37.657Z,3.25
2017-09-10T08:41:04.256Z,3.12
2017-09-10T08:43:30.886Z,2.50
2017-09-10T08:45:57.490Z,2.33
2017-09-10T08:48:24.142Z,2.55
2017-09-10T08:50:50.769Z,2.53
2017-09-10T08:53:17.425Z,2.30
2017-09-10T08:55:44.021Z,2.80
2017-09-10T08:58:10.646Z,2.90
2017-09-10T09:00:37.337Z,2.87
2017-09-10T09:03:03.941Z,2.30
2017-09-10T09:05:30.561Z,2.10
2017-09-10T09:07:57.170Z,2.40
2017-09-10T09:10:23.778Z,2.40
2017-09-10T09:12:50.481Z,2.37
2017-09-10T09:15:17.086Z,2.60
2017-09-10T09:17:43.760Z,2.50
2017-09-10T09:20:10.452Z,2.20
2017-09-10T09:22:37.053Z,2.30
2017-09-10T09:25:03.659Z,2.10
2017-09-10T09:27:30.373Z,2.40
2017-09-10T09:29:56.964Z,2.40
2017-09-10T09:32:23.569Z,2.00
2017-09-10T09:34:50.194Z,1.90
2017-09-10T09:37:16.801Z,2.37
2017-09-10T09:39:43.457Z,2.00
2017-09-10T09:42:10.082Z,1.73
2017-09-10T09:44:36.687Z,1.62
2017-09-10T09:47:03.290Z,1.75
2017-09-10T09:49:29.914Z,1.90
2017-09-10T09:51:56.517Z,1.40
2017-09-10T09:54:23.117Z,1.85
2017-09-10T09:56:49.747Z,1.55
2017-09-10T09:59:16.374Z,2.12
2017-09-10T10:01:42.975Z,1.60
2017-09-10T10:04:09.597Z,1.70
2017-09-10T10:06:36.198Z,1.70
2017-09-10T10:09:02.801Z,1.80
2017-09-10T10:11:29.462Z,1.50
2017-09-10T10:13:56.065Z,1.90
2017-09-10T10:16:22.743Z,1.98
2017-09-10T10:18:49.374Z,5.68
2017-09-10T10:21:15.983Z,2.00
2017-09-10T10:23:42.589Z,10.35
2017-09-10T10:26:09.752Z,19.83
2017-09-10T10:28:36.350Z,5.15
2017-09-10T10:31:02.958Z,8.23
2017-09-10T10:33:29.622Z,5.47
2017-09-10T10:35:56.226Z,7.90
2017-09-10T10:38:22.833Z,7.28
2017-09-10T10:40:49.461Z,4.03
2017-09-10T10:43:16.327Z,4.50
2017-09-10T10:45:43.030Z,7.60
2017-09-10T10:48:09.913Z,4.82
2017-09-10T10:50:36.622Z,2.10
2017-09-10T10:53:04.112Z,2.87
2017-09-10T10:55:31.673Z,1.67
2017-09-10T10:57:58.927Z,2.97
2017-09-10T11:00:25.685Z,2.70
2017-09-10T11:02:52.923Z,3.87
2017-09-10T11:05:19.566Z,5.57
2017-09-10T11:07:46.253Z,3.92
2017-09-10T11:10:12.878Z,1.30
2017-09-10T11:12:39.482Z,1.35
2017-09-10T11:15:06.169Z,2.97
2017-09-10T11:17:32.797Z,2.25
2017-09-10T11:19:59.397Z,1.40
2017-09-10T11:22:26.003Z,1.42
2017-09-10T11:24:52.624Z,1.50
2017-09-10T11:27:19.225Z,1.58
2017-09-10T11:29:46.156Z,1.60
2017-09-10T11:32:12.809Z,1.37
2017-09-10T11:34:39.434Z,2.00
2017-09-10T11:37:06.018Z,1.55
2017-09-10T11:39:32.666Z,2.20
2017-09-10T11:41:59.280Z,1.98
2017-09-10T11:44:25.885Z,2.53
2017-09-10T11:46:53.141Z,2.03
2017-09-10T11:49:21.442Z,1.25
2017-09-10T11:51:48.365Z,1.90
2017-09-10T11:54:16.337Z,1.27
2017-09-10T11:56:43.179Z,1.58
2017-09-10T11:59:09.809Z,1.80
2017-09-10T12:01:36.443Z,1.50
2017-09-10T12:04:03.049Z,1.50
2017-09-10T12:06:29.661Z,1.42
2017-09-10T12:08:56.325Z,1.02
2017-09-10T12:11:22.931Z,1.20
2017-09-10T12:13:49.537Z,2.08
2017-09-10T12:16:16.167Z,1.60
2017-09-10T12:18:42.766Z,1.15
2017-09-10T12:21:09.374Z,0.80
2017-09-10T12:23:36.000Z,1.40
2017-09-10T12:26:02.597Z,1.00
2017-09-10T12:28:29.234Z,1.55
2017-09-10T12:30:55.862Z,1.23
2017-09-10T12:33:23.414Z,1.17
2017-09-10T12:35:51.060Z,1.50
2017-09-10T12:38:18.733Z,1.00
2017-09-10T12:40:46.189Z,1.10
2017-09-10T12:43:13.752Z,3.80
2017-09-10T12:45:41.207Z,1.25
2017-09-10T12:48:09.380Z,1.20
2017-09-10T12:50:36.815Z,1.50
2017-09-10T12:53:04.274Z,1.40
2017-09-10T12:55:31.937Z,1.20
2017-09-10T12:57:58.883Z,2.35
2017-09-10T13:00:26.548Z,2.70
2017-09-10T13:02:53.238Z,1.80
2017-09-10T13:05:19.878Z,1.45
2017-09-10T13:07:46.517Z,1.20
2017-09-10T13:10:13.117Z,1.45
2017-09-10T13:12:39.730Z,0.80
2017-09-10T13:15:06.376Z,33.67
2017-09-10T13:17:32.983Z,6.57
2017-09-10T13:19:59.594Z,5.68
2017-09-10T13:22:26.239Z,2.62
2017-09-10T13:24:52.855Z,1.30
2017-09-10T13:27:19.464Z,1.58
2017-09-10T13:29:46.119Z,1.17
2017-09-10T13:32:14.699Z,1.50
2017-09-10T13:34:42.157Z,9.98
2017-09-10T13:37:09.829Z,4.00
2017-09-10T13:39:37.379Z,1.48
2017-09-10T13:42:04.023Z,1.57
2017-09-10T13:44:30.651Z,2.40
2017-09-10T13:46:57.250Z,2.00
2017-09-10T13:49:23.889Z,0.60
2017-09-10T13:51:50.526Z,2.10
2017-09-10T13:54:17.134Z,0.97
2017-09-10T13:56:43.737Z,1.67
2017-09-10T13:59:10.362Z,0.93
2017-09-10T14:01:36.982Z,2.63
2017-09-10T14:04:03.667Z,7.03
2017-09-10T14:06:30.294Z,11.57
2017-09-10T14:08:56.898Z,1.23
2017-09-10T14:11:23.507Z,3.33
2017-09-10T14:13:50.137Z,33.47
2017-09-10T14:16:16.743Z,1.10
2017-09-10T14:18:43.453Z,2.50
2017-09-10T14:21:10.244Z,1.43
2017-09-10T14:23:36.846Z,2.10
2017-09-10T14:26:03.441Z,2.77
2017-09-10T14:28:30.070Z,3.13
2017-09-10T14:30:56.698Z,1.70
2017-09-10T14:33:23.297Z,1.03
2017-09-10T14:35:49.922Z,1.07
2017-09-10T14:38:16.529Z,3.33
2017-09-10T14:40:43.130Z,2.40
2017-09-10T14:43:09.766Z,3.10
2017-09-10T14:45:36.378Z,10.60
2017-09-10T14:48:02.982Z,5.20
2017-09-10T14:50:29.606Z,2.30
2017-09-10T14:52:56.204Z,0.97
2017-09-10T14:55:22.810Z,0.90
2017-09-10T14:57:49.434Z,1.17
2017-09-10T15:00:16.041Z,1.63
2017-09-10T15:02:42.750Z,1.17
2017-09-10T15:05:09.378Z,2.80
2017-09-10T15:07:36.031Z,0.83
2017-09-10T15:10:02.647Z,0.65
2017-09-10T15:12:29.309Z,1.87
2017-09-10T15:14:55.944Z,1.47
2017-09-10T15:17:22.585Z,1.87
2017-09-10T15:19:49.210Z,1.30
2017-09-10T15:22:15.815Z,2.97
2017-09-10T15:24:42.417Z,2.40
2017-09-10T15:27:09.044Z,1.10
2017-09-10T15:29:35.649Z,6.93
2017-09-10T15:32:02.702Z,2.17
2017-09-10T15:34:31.860Z,0.97
2017-09-10T15:36:58.923Z,4.53
2017-09-10T15:39:27.434Z,3.15
2017-09-10T15:41:54.971Z,5.90
2017-09-10T15:44:21.921Z,1.45
2017-09-10T15:46:50.322Z,2.15
2017-09-10T15:49:17.338Z,5.60
2017-09-10T15:51:44.846Z,6.05
2017-09-10T15:54:13.281Z,4.53
2017-09-10T15:56:40.910Z,4.25
2017-09-10T15:59:07.546Z,4.00
2017-09-10T16:01:34.154Z,3.20
2017-09-10T16:04:00.790Z,5.18
2017-09-10T16:06:27.450Z,3.58
2017-09-10T16:08:54.059Z,3.80
2017-09-10T16:11:20.686Z,5.10
2017-09-10T16:13:47.299Z,4.82
2017-09-10T16:16:13.893Z,3.95
2017-09-10T16:18:40.522Z,4.35
2017-09-10T16:21:07.187Z,2.87
2017-09-10T16:23:33.792Z,4.78
2017-09-10T16:26:00.418Z,1.50
2017-09-10T16:28:27.103Z,2.33
2017-09-10T16:30:53.806Z,1.58
2017-09-10T16:33:20.528Z,1.40
2017-09-10T16:35:47.221Z,1.33
2017-09-10T16:38:13.836Z,1.70
2017-09-10T16:40:40.503Z,1.62
2017-09-10T16:43:07.101Z,0.90
2017-09-10T16:45:33.698Z,1.30
2017-09-10T16:48:00.333Z,1.50
2017-09-10T16:50:26.958Z,1.30
2017-09-10T16:52:53.561Z,1.50
2017-09-10T16:55:20.246Z,2.05
2017-09-10T16:57:46.855Z,2.17
2017-09-10T17:00:14.172Z,2.10
2017-09-10T17:02:40.798Z,1.75
2017-09-10T17:05:07.410Z,1.60
2017-09-10T17:07:34.047Z,1.25
2017-09-10T17:10:00.790Z,1.90
2017-09-10T17:12:27.393Z,1.85
2017-09-10T17:14:53.988Z,2.03
2017-09-10T17:17:20.617Z,2.25
2017-09-10T17:19:47.222Z,2.10
2017-09-10T17:22:13.831Z,2.00
2017-09-10T17:24:40.458Z,1.98
2017-09-10T17:27:07.058Z,2.28
2017-09-10T17:29:33.690Z,2.28
2017-09-10T17:32:00.314Z,2.70
2017-09-10T17:34:26.917Z,2.53
2017-09-10T17:36:53.657Z,2.72
2017-09-10T17:39:20.277Z,2.50
2017-09-10T17:41:46.886Z,2.50
2017-09-10T17:44:13.482Z,3.15
2017-09-10T17:46:40.162Z,3.00
2017-09-10T17:49:06.804Z,2.87
2017-09-10T17:51:33.491Z,2.33
2017-09-10T17:54:00.119Z,2.22
2017-09-10T17:56:26.833Z,3.10
2017-09-10T17:58:53.426Z,3.20
2017-09-10T18:01:20.062Z,3.40
2017-09-10T18:03:46.730Z,3.83
2017-09-10T18:06:13.338Z,3.28
2017-09-10T18:08:39.971Z,3.47
2017-09-10T18:11:06.655Z,3.45
2017-09-10T18:13:33.297Z,2.90
2017-09-10T18:15:59.934Z,3.30
2017-09-10T18:18:26.538Z,3.70
2017-09-10T18:20:53.213Z,3.33
2017-09-10T18:23:19.843Z,3.40
2017-09-10T18:25:46.446Z,3.47
2017-09-10T18:28:13.129Z,3.97
2017-09-10T18:30:39.754Z,4.25
2017-09-10T18:33:06.357Z,4.05
2017-09-10T18:35:32.991Z,4.20
2017-09-10T18:37:59.686Z,4.12
2017-09-10T18:40:26.289Z,5.57
2017-09-10T18:42:52.966Z,3.95
2017-09-10T18:45:19.598Z,11.63
2017-09-10T18:47:46.211Z,11.20
2017-09-10T18:50:12.810Z,4.47
2017-09-10T18:52:39.465Z,5.22
2017-09-10T18:55:06.065Z,4.20
2017-09-10T18:57:32.670Z,4.05
2017-09-10T18:59:59.298Z,3.92
2017-09-10T19:02:25.897Z,4.00
2017-09-10T19:04:52.512Z,4.82
2017-09-10T19:07:19.134Z,4.05
2017-09-10T19:09:45.789Z,4.90
2017-09-10T19:12:12.399Z,4.40
2017-09-10T19:14:39.026Z,3.90
2017-09-10T19:17:05.714Z,4.03
2017-09-10T19:19:32.315Z,3.72
2017-09-10T19:21:58.990Z,4.28
2017-09-10T19:24:25.628Z,5.40
2017-09-10T19:26:52.265Z,3.90
2017-09-10T19:29:18.889Z,4.28
2017-09-10T19:31:45.588Z,4.00
2017-09-10T19:34:12.181Z,4.47
2017-09-10T19:36:38.814Z,4.22
2017-09-10T19:39:05.457Z,3.55
2017-09-10T19:41:32.142Z,4.37
2017-09-10T19:43:58.838Z,4.00
2017-09-10T19:46:25.443Z,4.45
2017-09-10T19:48:52.042Z,3.40
2017-09-10T19:51:18.670Z,3.50
2017-09-10T19:53:45.281Z,3.97
2017-09-10T19:56:11.897Z,4.25
2017-09-10T19:58:38.522Z,4.20
2017-09-10T20:01:05.209Z,4.85
2017-09-10T20:03:31.813Z,3.65
2017-09-10T20:05:58.486Z,4.00
2017-09-10T20:08:25.090Z,3.83
2017-09-10T20:10:51.771Z,4.30
2017-09-10T20:13:19.325Z,4.62
2017-09-10T20:15:45.946Z,12.85
2017-09-10T20:18:12.549Z,4.43
2017-09-10T20:20:39.178Z,4.00
2017-09-10T20:23:05.782Z,4.78
2017-09-10T20:25:32.386Z,4.22
2017-09-10T20:27:59.059Z,4.15
2017-09-10T20:30:25.698Z,3.85
2017-09-10T20:32:52.337Z,3.80
2017-09-10T20:35:18.957Z,4.25
2017-09-10T20:37:45.566Z,4.28
2017-09-10T20:40:12.167Z,3.97
2017-09-10T20:42:38.790Z,4.62
2017-09-10T20:45:05.394Z,4.03
2017-09-10T20:47:31.997Z,4.80
2017-09-10T20:49:58.650Z,4.78
2017-09-10T20:52:25.241Z,4.37
2017-09-10T20:54:51.882Z,4.85
2017-09-10T20:57:18.627Z,4.03
2017-09-10T20:59:45.309Z,5.05
2017-09-10T21:02:11.910Z,4.60
2017-09-10T21:04:38.541Z,4.95
2017-09-10T21:07:05.152Z,4.62
2017-09-10T21:09:31.754Z,4.78
2017-09-10T21:11:58.458Z,4.65
2017-09-10T21:14:25.107Z,5.15
2017-09-10T21:16:51.705Z,5.20
2017-09-10T21:19:18.379Z,4.65
2017-09-10T21:21:44.980Z,4.22
2017-09-10T21:24:11.699Z,4.47
2017-09-10T21:26:38.393Z,5.53
2017-09-10T21:29:04.998Z,4.40
2017-09-10T21:31:31.598Z,4.53
2017-09-10T21:33:58.218Z,5.10
2017-09-10T21:36:24.849Z,4.87
2017-09-10T21:38:51.454Z,4.90
2017-09-10T21:41:18.136Z,5.47
2017-09-10T21:43:44.739Z,4.45
2017-09-10T21:46:11.349Z,4.18
2017-09-10T21:48:37.961Z,5.37
2017-09-10T21:51:04.572Z,4.28
2017-09-10T21:53:31.218Z,4.93
2017-09-10T21:55:57.842Z,4.28
2017-09-10T21:58:24.450Z,5.32
2017-09-10T22:00:51.139Z,5.43
2017-09-10T22:03:17.770Z,5.22
2017-09-10T22:05:44.370Z,5.55
2017-09-10T22:08:10.970Z,5.43
2017-09-10T22:10:37.595Z,4.45
2017-09-10T22:13:04.198Z,5.00
2017-09-10T22:15:30.797Z,4.65
2017-09-10T22:17:57.425Z,4.62
2017-09-10T22:20:24.035Z,5.05
2017-09-10T22:22:50.686Z,4.85
2017-09-10T22:25:17.370Z,5.53
2017-09-10T22:27:44.066Z,4.60
2017-09-10T22:30:10.749Z,4.68
2017-09-10T22:32:37.374Z,5.00
2017-09-10T22:35:03.982Z,4.85
2017-09-10T22:37:30.585Z,5.35
2017-09-10T22:39:57.221Z,5.10
2017-09-10T22:42:23.897Z,4.65
2017-09-10T22:44:50.494Z,4.55
2017-09-10T22:47:17.114Z,4.68
2017-09-10T22:49:43.722Z,5.18
2017-09-10T22:52:10.353Z,4.95
2017-09-10T22:54:36.987Z,4.15
2017-09-10T22:57:03.625Z,4.80
2017-09-10T22:59:30.231Z,4.72
2017-09-10T23:01:56.905Z,4.85
2017-09-10T23:04:23.511Z,4.78
2017-09-10T23:06:50.191Z,4.85
2017-09-10T23:09:16.973Z,5.22
2017-09-10T23:11:43.674Z,4.70
2017-09-10T23:14:10.273Z,5.37
2017-09-10T23:16:36.946Z,4.87
2017-09-10T23:19:03.550Z,5.15
2017-09-10T23:21:30.221Z,6.45
2017-09-10T23:23:56.851Z,5.10
2017-09-10T23:26:23.502Z,4.80
2017-09-10T23:28:50.142Z,5.12
2017-09-10T23:31:16.763Z,5.28
2017-09-10T23:33:43.364Z,5.62
2017-09-10T23:36:09.966Z,5.28
2017-09-10T23:38:36.598Z,5.37
2017-09-10T23:41:03.201Z,5.87
2017-09-10T23:43:29.817Z,4.80
2017-09-10T23:45:56.438Z,4.80
2017-09-10T23:48:23.038Z,4.95
2017-09-10T23:50:49.644Z,4.35
2017-09-10T23:53:16.330Z,5.10
2017-09-10T23:55:42.929Z,4.35
2017-09-10T23:58:09.533Z,5.37
